Wetterdaten: Woche 29.03.21 - 04.04.21 (KW13)
Datum Zeit Temp. Aussen Temp. o. S. Temp +5cm Feuchte Auss Luftdruck Regen Sonnenschein Regendauer Solar Windben Empfang
29.03.2021 00:00 9,3 C 7,9 C 5,7 C 78 % 1028,1 hPa 0,0 l/m 0,00 h 0,00 h 0 W/m 4,0 km/h (1 Bft) 97,06 %
29.03.2021 01:00 8,9 C 8,3 C 5,9 C 80 % 1028,0 hPa 0,0 l/m 0,00 h 0,00 h 0 W/m 8,5 km/h (2 Bft) 98,22 %
29.03.2021 02:00 8,9 C 8,0 C 5,7 C 77 % 1028,0 hPa 0,0 l/m 0,00 h 0,00 h 0 W/m 6,7 km/h (2 Bft) 99,29 %
29.03.2021 03:00 8,5 C 7,6 C 5,0 C 78 % 1027,9 hPa 0,0 l/m 0,00 h 0,00 h 0 W/m 6,1 km/h (2 Bft) 95,43 %
29.03.2021 04:00 8,3 C 7,2 C 5,0 C 78 % 1027,8 hPa 0,0 l/m 0,00 h 0,00 h 0 W/m 5,1 km/h (1 Bft) 96,87 %
29.03.2021 05:00 8,1 C 7,2 C 4,8 C 78 % 1027,9 hPa 0,0 l/m 0,00 h 0,00 h 0 W/m 6,3 km/h (2 Bft) 98,07 %
29.03.2021 06:00 7,8 C 6,8 C 4,5 C 79 % 1028,0 hPa 0,0 l/m 0,00 h 0,00 h 0 W/m 5,6 km/h (1 Bft) 98,51 %
29.03.2021 07:00 7,5 C 6,7 C 4,1 C 81 % 1028,4 hPa 0,0 l/m 0,00 h 0,00 h 14 W/m 3,6 km/h (1 Bft) 93,20 %
29.03.2021 08:00 8,2 C 8,1 C 5,2 C 81 % 1028,8 hPa 0,0 l/m 0,00 h 0,00 h 39 W/m 6,4 km/h (2 Bft) 96,71 %
29.03.2021 09:00 10,8 C 11,7 C 8,1 C 75 % 1029,1 hPa 0,0 l/m 0,67 h 0,00 h 249 W/m 15,5 km/h (3 Bft) 98,38 %
29.03.2021 10:00 13,8 C 16,9 C 15,5 C 66 % 1029,4 hPa 0,0 l/m 1,00 h 0,00 h 403 W/m 18,3 km/h (3 Bft) 97,51 %
29.03.2021 11:00 15,9 C 18,4 C 20,2 C 56 % 1029,8 hPa 0,0 l/m 1,00 h 0,00 h 553 W/m 18,4 km/h (3 Bft) 95,92 %
29.03.2021 12:00 18,0 C 22,3 C 26,6 C 48 % 1030,0 hPa 0,0 l/m 1,00 h 0,00 h 712 W/m 19,4 km/h (3 Bft) 94,94 %
29.03.2021 13:00 19,7 C 24,6 C 21,3 C 45 % 1029,9 hPa 0,0 l/m 1,00 h 0,00 h 750 W/m 17,2 km/h (3 Bft) 99,28 %
29.03.2021 14:00 20,8 C 25,9 C 17,9 C 41 % 1029,6 hPa 0,0 l/m 1,00 h 0,00 h 731 W/m 22,3 km/h (4 Bft) 97,52 %
29.03.2021 15:00 21,4 C 26,9 C 18,0 C 40 % 1029,4 hPa 0,0 l/m 1,00 h 0,00 h 662 W/m 21,9 km/h (4 Bft) 96,35 %
29.03.2021 16:00 22,0 C 28,5 C 18,9 C 37 % 1029,3 hPa 0,0 l/m 1,00 h 0,00 h 545 W/m 19,0 km/h (3 Bft) 98,29 %
29.03.2021 17:00 21,7 C 27,0 C 18,1 C 36 % 1029,3 hPa 0,0 l/m 1,00 h 0,00 h 386 W/m 15,0 km/h (3 Bft) 96,93 %
29.03.2021 18:00 21,0 C 24,6 C 17,6 C 37 % 1029,4 hPa 0,0 l/m 1,00 h 0,00 h 185 W/m 11,4 km/h (2 Bft) 98,30 %
29.03.2021 19:00 19,4 C 18,3 C 15,0 C 41 % 1029,6 hPa 0,0 l/m 0,07 h 0,00 h 25 W/m 6,0 km/h (2 Bft) 97,66 %
29.03.2021 20:00 17,4 C 15,5 C 11,7 C 44 % 1029,8 hPa 0,0 l/m 0,00 h 0,00 h 4 W/m 3,7 km/h (1 Bft) 97,37 %
29.03.2021 21:00 15,8 C 14,0 C 10,1 C 48 % 1030,3 hPa 0,0 l/m 0,00 h 0,00 h 0 W/m 3,2 km/h (1 Bft) 96,09 %
29.03.2021 22:00 14,7 C 13,1 C 9,4 C 51 % 1030,4 hPa 0,0 l/m 0,00 h 0,00 h 0 W/m 2,5 km/h (1 Bft) 99,09 %
29.03.2021 23:00 12,7 C 9,7 C 6,4 C 60 % 1030,7 hPa 0,0 l/m 0,00 h 0,00 h 0 W/m 0,0 km/h (0 Bft) 96,09 %
30.03.2021 00:00 10,3 C 8,0 C 5,1 C 67 % 1030,9 hPa 0,0 l/m 0,00 h 0,00 h 0 W/m 0,1 km/h (0 Bft) 99,14 %
30.03.2021 01:00 8,8 C 7,6 C 5,0 C 72 % 1031,1 hPa 0,0 l/m 0,00 h 0,00 h 0 W/m 2,8 km/h (1 Bft) 98,36 %
30.03.2021 02:00 8,8 C 7,7 C 5,0 C 72 % 1031,3 hPa 0,0 l/m 0,00 h 0,00 h 0 W/m 2,3 km/h (1 Bft) 94,85 %
30.03.2021 03:00 7,9 C 5,7 C 3,3 C 75 % 1031,3 hPa 0,0 l/m 0,00 h 0,00 h 0 W/m 0,0 km/h (0 Bft) 94,72 %
30.03.2021 04:00 6,5 C 5,4 C 3,1 C 79 % 1031,2 hPa 0,0 l/m 0,00 h 0,00 h 0 W/m 2,7 km/h (1 Bft) 98,02 %
30.03.2021 05:00 6,9 C 6,3 C 4,0 C 78 % 1031,1 hPa 0,0 l/m 0,00 h 0,00 h 0 W/m 6,3 km/h (2 Bft) 99,15 %
30.03.2021 06:00 6,7 C 5,8 C 3,6 C 78 % 1031,3 hPa 0,0 l/m 0,00 h 0,00 h 0 W/m 4,7 km/h (1 Bft) 97,08 %
30.03.2021 07:00 6,2 C 5,4 C 3,1 C 81 % 1031,7 hPa 0,0 l/m 0,00 h 0,00 h 14 W/m 5,0 km/h (1 Bft) 97,14 %
30.03.2021 08:00 6,6 C 6,5 C 4,0 C 82 % 1032,0 hPa 0,0 l/m 0,00 h 0,00 h 34 W/m 5,2 km/h (1 Bft) 95,46 %
30.03.2021 09:00 9,2 C 10,8 C 6,8 C 77 % 1032,3 hPa 0,0 l/m 0,67 h 0,00 h 267 W/m 11,3 km/h (2 Bft) 94,73 %
30.03.2021 10:00 13,8 C 18,1 C 16,1 C 65 % 1032,3 hPa 0,0 l/m 0,97 h 0,00 h 427 W/m 10,5 km/h (2 Bft) 97,21 %
30.03.2021 11:00 16,8 C 19,7 C 21,4 C 55 % 1032,3 hPa 0,0 l/m 1,00 h 0,00 h 553 W/m 13,6 km/h (3 Bft) 97,59 %
30.03.2021 12:00 20,2 C 24,8 C 29,0 C 46 % 1032,1 hPa 0,0 l/m 1,00 h 0,00 h 725 W/m 13,0 km/h (3 Bft) 98,07 %
30.03.2021 13:00 21,6 C 26,3 C 22,2 C 41 % 1031,4 hPa 0,0 l/m 1,00 h 0,00 h 762 W/m 14,1 km/h (3 Bft) 99,86 %
30.03.2021 14:00 22,9 C 29,1 C 19,5 C 37 % 1030,8 hPa 0,0 l/m 1,00 h 0,00 h 745 W/m 12,8 km/h (3 Bft) 96,23 %
30.03.2021 15:00 23,8 C 30,2 C 19,7 C 34 % 1029,9 hPa 0,0 l/m 1,00 h 0,00 h 674 W/m 12,4 km/h (3 Bft) 96,75 %
30.03.2021 16:00 24,6 C 32,2 C 20,6 C 34 % 1029,0 hPa 0,0 l/m 1,00 h 0,00 h 520 W/m 7,8 km/h (2 Bft) 99,22 %
30.03.2021 17:00 24,3 C 32,3 C 19,7 C 35 % 1028,2 hPa 0,0 l/m 1,00 h 0,00 h 388 W/m 6,1 km/h (2 Bft) 97,03 %
30.03.2021 18:00 24,3 C 28,4 C 19,3 C 32 % 1027,6 hPa 0,0 l/m 1,00 h 0,00 h 184 W/m 4,7 km/h (1 Bft) 96,81 %
30.03.2021 19:00 22,8 C 19,8 C 14,4 C 39 % 1027,2 hPa 0,0 l/m 0,03 h 0,00 h 24 W/m 1,2 km/h (1 Bft) 98,25 %
30.03.2021 20:00 18,7 C 15,2 C 11,1 C 48 % 1027,0 hPa 0,0 l/m 0,00 h 0,00 h 6 W/m 0,0 km/h (0 Bft) 98,49 %
30.03.2021 21:00 15,6 C 12,9 C 9,3 C 55 % 1026,9 hPa 0,0 l/m 0,00 h 0,00 h 0 W/m 0,0 km/h (0 Bft) 97,01 %
30.03.2021 22:00 13,5 C 11,5 C 8,2 C 59 % 1026,7 hPa 0,0 l/m 0,00 h 0,00 h 0 W/m 0,0 km/h (0 Bft) 96,57 %
30.03.2021 23:00 12,1 C 10,6 C 7,3 C 62 % 1026,4 hPa 0,0 l/m 0,00 h 0,00 h 0 W/m 0,1 km/h (0 Bft) 97,51 %
31.03.2021 00:00 11,0 C 9,4 C 6,7 C 66 % 1026,0 hPa 0,0 l/m 0,00 h 0,00 h 0 W/m 0,0 km/h (0 Bft) 98,72 %
31.03.2021 01:00 10,8 C 10,4 C 7,3 C 64 % 1025,8 hPa 0,0 l/m 0,00 h 0,00 h 0 W/m 2,3 km/h (1 Bft) 99,29 %
31.03.2021 02:00 12,1 C 11,5 C 8,5 C 59 % 1025,4 hPa 0,0 l/m 0,00 h 0,00 h 0 W/m 5,9 km/h (2 Bft) 94,86 %
31.03.2021 03:00 11,9 C 10,7 C 8,1 C 61 % 1024,8 hPa 0,0 l/m 0,00 h 0,00 h 0 W/m 5,8 km/h (2 Bft) 98,09 %
31.03.2021 04:00 11,4 C 10,4 C 7,8 C 63 % 1024,3 hPa 0,0 l/m 0,00 h 0,00 h 0 W/m 8,0 km/h (2 Bft) 97,89 %
31.03.2021 05:00 10,7 C 9,7 C 7,2 C 65 % 1024,0 hPa 0,0 l/m 0,00 h 0,00 h 0 W/m 6,8 km/h (2 Bft) 97,94 %
31.03.2021 06:00 10,1 C 9,0 C 6,7 C 67 % 1023,8 hPa 0,0 l/m 0,00 h 0,00 h 0 W/m 7,4 km/h (2 Bft) 97,51 %
31.03.2021 07:00 9,8 C 9,0 C 6,5 C 68 % 1023,7 hPa 0,0 l/m 0,00 h 0,00 h 14 W/m 9,8 km/h (2 Bft) 97,22 %
31.03.2021 08:00 10,3 C 10,0 C 7,3 C 68 % 1023,6 hPa 0,0 l/m 0,00 h 0,00 h 34 W/m 12,7 km/h (3 Bft) 97,96 %
31.03.2021 09:00 12,6 C 13,7 C 9,7 C 64 % 1023,3 hPa 0,0 l/m 0,70 h 0,00 h 273 W/m 14,6 km/h (3 Bft) 95,91 %
31.03.2021 10:00 16,5 C 20,0 C 18,3 C 57 % 1023,3 hPa 0,0 l/m 0,93 h 0,00 h 414 W/m 14,2 km/h (3 Bft) 96,27 %
31.03.2021 11:00 19,2 C 22,0 C 23,2 C 50 % 1023,0 hPa 0,0 l/m 1,00 h 0,00 h 564 W/m 13,2 km/h (3 Bft) 98,04 %
31.03.2021 12:00 22,5 C 27,5 C 31,3 C 44 % 1022,5 hPa 0,0 l/m 1,00 h 0,00 h 720 W/m 10,2 km/h (2 Bft) 99,75 %
31.03.2021 13:00 24,4 C 29,3 C 24,9 C 40 % 1021,8 hPa 0,0 l/m 1,00 h 0,00 h 756 W/m 12,4 km/h (3 Bft) 96,83 %
31.03.2021 14:00 25,7 C 31,3 C 21,9 C 37 % 1021,1 hPa 0,0 l/m 1,00 h 0,00 h 741 W/m 13,1 km/h (3 Bft) 97,15 %
31.03.2021 15:00 26,6 C 32,8 C 22,3 C 37 % 1020,4 hPa 0,0 l/m 1,00 h 0,00 h 663 W/m 11,8 km/h (2 Bft) 98,62 %
31.03.2021 16:00 26,9 C 33,4 C 22,7 C 37 % 1019,8 hPa 0,0 l/m 1,00 h 0,00 h 528 W/m 12,6 km/h (3 Bft) 98,03 %
31.03.2021 17:00 26,6 C 31,6 C 22,2 C 39 % 1019,4 hPa 0,0 l/m 1,00 h 0,00 h 368 W/m 11,8 km/h (2 Bft) 95,88 %
31.03.2021 18:00 26,0 C 29,4 C 21,4 C 40 % 1019,1 hPa 0,0 l/m 1,00 h 0,00 h 180 W/m 6,2 km/h (2 Bft) 97,69 %
31.03.2021 19:00 24,5 C 21,7 C 17,2 C 45 % 1019,0 hPa 0,0 l/m 0,00 h 0,00 h 27 W/m 1,8 km/h (1 Bft) 99,58 %
31.03.2021 20:00 21,1 C 17,6 C 13,5 C 55 % 1019,2 hPa 0,0 l/m 0,00 h 0,00 h 4 W/m 0,0 km/h (0 Bft) 96,00 %
31.03.2021 21:00 17,9 C 15,2 C 11,6 C 62 % 1019,4 hPa 0,0 l/m 0,00 h 0,00 h 0 W/m 0,2 km/h (0 Bft) 97,02 %
31.03.2021 22:00 16,1 C 14,4 C 11,1 C 64 % 1019,5 hPa 0,0 l/m 0,00 h 0,00 h 0 W/m 2,2 km/h (1 Bft) 98,22 %
31.03.2021 23:00 15,6 C 14,2 C 11,0 C 65 % 1019,6 hPa 0,0 l/m 0,00 h 0,00 h 0 W/m 2,7 km/h (1 Bft) 99,44 %
01.04.2021 00:00 14,8 C 12,8 C 9,5 C 67 % 1019,8 hPa 0,0 l/m 0,00 h 0,00 h 0 W/m 0,6 km/h (0 Bft) 95,01 %
01.04.2021 01:00 13,5 C 11,8 C 8,5 C 70 % 1019,8 hPa 0,0 l/m 0,00 h 0,00 h 0 W/m 0,7 km/h (0 Bft) 97,24 %
01.04.2021 02:00 12,6 C 11,2 C 8,4 C 72 % 1019,6 hPa 0,0 l/m 0,00 h 0,00 h 0 W/m 0,1 km/h (0 Bft) 96,53 %
01.04.2021 03:00 11,9 C 10,8 C 8,0 C 75 % 1019,4 hPa 0,0 l/m 0,00 h 0,00 h 0 W/m 0,2 km/h (0 Bft) 98,23 %
01.04.2021 04:00 11,4 C 10,3 C 7,7 C 78 % 1019,1 hPa 0,0 l/m 0,00 h 0,00 h 0 W/m 0,1 km/h (0 Bft) 97,34 %
01.04.2021 05:00 11,3 C 10,8 C 8,1 C 78 % 1019,1 hPa 0,0 l/m 0,00 h 0,00 h 0 W/m 0,0 km/h (0 Bft) 98,79 %
01.04.2021 06:00 11,1 C 9,9 C 7,4 C 79 % 1019,3 hPa 0,0 l/m 0,00 h 0,00 h 0 W/m 0,0 km/h (0 Bft) 95,82 %
01.04.2021 07:00 10,4 C 9,0 C 6,7 C 82 % 1019,8 hPa 0,0 l/m 0,00 h 0,00 h 17 W/m 0,0 km/h (0 Bft) 97,13 %
01.04.2021 08:00 10,1 C 10,6 C 7,9 C 84 % 1020,1 hPa 0,0 l/m 0,00 h 0,00 h 64 W/m 0,2 km/h (0 Bft) 98,08 %
01.04.2021 09:00 12,4 C 15,0 C 11,0 C 79 % 1020,3 hPa 0,0 l/m 0,73 h 0,00 h 248 W/m 3,4 km/h (1 Bft) 99,07 %
01.04.2021 10:00 16,8 C 21,0 C 19,2 C 65 % 1020,4 hPa 0,0 l/m 0,97 h 0,00 h 374 W/m 10,0 km/h (2 Bft) 96,73 %
01.04.2021 11:00 19,0 C 22,1 C 21,6 C 58 % 1020,5 hPa 0,0 l/m 1,00 h 0,00 h 506 W/m 14,5 km/h (3 Bft) 99,57 %
01.04.2021 12:00 20,2 C 24,9 C 26,0 C 57 % 1020,5 hPa 0,0 l/m 1,00 h 0,00 h 654 W/m 17,4 km/h (3 Bft) 95,66 %
01.04.2021 13:00 21,3 C 26,5 C 21,3 C 55 % 1020,6 hPa 0,0 l/m 1,00 h 0,00 h 689 W/m 21,8 km/h (4 Bft) 95,80 %
01.04.2021 14:00 21,0 C 26,0 C 18,1 C 57 % 1020,7 hPa 0,0 l/m 1,00 h 0,00 h 653 W/m 25,8 km/h (4 Bft) 99,43 %
01.04.2021 15:00 19,8 C 25,0 C 16,6 C 58 % 1021,0 hPa 0,0 l/m 1,00 h 0,00 h 595 W/m 22,6 km/h (4 Bft) 97,79 %
01.04.2021 16:00 19,2 C 25,5 C 16,5 C 59 % 1021,1 hPa 0,0 l/m 1,00 h 0,00 h 510 W/m 27,5 km/h (4 Bft) 95,94 %
01.04.2021 17:00 17,5 C 22,3 C 14,6 C 63 % 1021,4 hPa 0,0 l/m 1,00 h 0,00 h 358 W/m 25,2 km/h (4 Bft) 98,08 %
01.04.2021 18:00 16,0 C 19,5 C 13,5 C 61 % 1021,6 hPa 0,0 l/m 1,00 h 0,00 h 181 W/m 23,0 km/h (4 Bft) 97,97 %
01.04.2021 19:00 14,3 C 13,7 C 11,1 C 58 % 1022,1 hPa 0,0 l/m 0,00 h 0,00 h 28 W/m 22,4 km/h (4 Bft) 95,80 %
01.04.2021 20:00 12,3 C 11,3 C 9,0 C 58 % 1022,6 hPa 0,0 l/m 0,00 h 0,00 h 6 W/m 15,4 km/h (3 Bft) 97,86 %
01.04.2021 21:00 10,6 C 9,4 C 7,2 C 64 % 1023,6 hPa 0,0 l/m 0,00 h 0,00 h 0 W/m 15,4 km/h (3 Bft) 96,44 %
01.04.2021 22:00 8,9 C 7,8 C 5,5 C 74 % 1024,2 hPa 0,0 l/m 0,00 h 0,00 h 0 W/m 16,1 km/h (3 Bft) 99,43 %
01.04.2021 23:00 7,5 C 6,6 C 4,4 C 82 % 1024,6 hPa 0,0 l/m 0,00 h 0,00 h 0 W/m 13,7 km/h (3 Bft) 98,26 %
02.04.2021 00:00 6,6 C 5,8 C 3,6 C 85 % 1025,0 hPa 0,0 l/m 0,00 h 0,00 h 0 W/m 12,3 km/h (3 Bft) 96,17 %
02.04.2021 01:00 5,8 C 4,8 C 2,8 C 87 % 1025,0 hPa 0,0 l/m 0,00 h 0,00 h 0 W/m 8,8 km/h (2 Bft) 95,55 %
02.04.2021 02:00 5,1 C 4,3 C 2,3 C 88 % 1024,9 hPa 0,0 l/m 0,00 h 0,00 h 0 W/m 9,7 km/h (2 Bft) 99,50 %
02.04.2021 03:00 4,5 C 3,6 C 1,8 C 89 % 1024,8 hPa 0,0 l/m 0,00 h 0,00 h 0 W/m 7,9 km/h (2 Bft) 97,94 %
02.04.2021 04:00 4,0 C 3,4 C 1,5 C 90 % 1024,9 hPa 0,0 l/m 0,00 h 0,00 h 0 W/m 7,2 km/h (2 Bft) 96,85 %
02.04.2021 05:00 4,2 C 4,0 C 2,2 C 92 % 1024,9 hPa 0,0 l/m 0,00 h 0,00 h 0 W/m 8,3 km/h (2 Bft) 96,34 %
02.04.2021 06:00 4,4 C 3,9 C 2,3 C 91 % 1025,0 hPa 0,0 l/m 0,00 h 0,00 h 0 W/m 9,7 km/h (2 Bft) 98,73 %
02.04.2021 07:00 4,2 C 3,9 C 2,1 C 92 % 1025,3 hPa 0,0 l/m 0,00 h 0,00 h 8 W/m 12,0 km/h (2 Bft) 94,24 %
02.04.2021 08:00 4,4 C 4,4 C 2,6 C 92 % 1025,5 hPa 0,0 l/m 0,00 h 0,00 h 44 W/m 12,5 km/h (3 Bft) 96,32 %
02.04.2021 09:00 5,0 C 5,3 C 3,4 C 91 % 1025,8 hPa 0,0 l/m 0,00 h 0,00 h 88 W/m 12,8 km/h (3 Bft) 99,58 %
02.04.2021 10:00 5,6 C 6,0 C 4,1 C 89 % 1026,1 hPa 0,0 l/m 0,00 h 0,00 h 126 W/m 12,1 km/h (2 Bft) 97,04 %
02.04.2021 11:00 6,1 C 6,6 C 4,5 C 87 % 1026,3 hPa 0,0 l/m 0,00 h 0,00 h 141 W/m 12,7 km/h (3 Bft) 95,89 %
02.04.2021 12:00 6,5 C 7,0 C 4,7 C 85 % 1026,2 hPa 0,0 l/m 0,00 h 0,00 h 132 W/m 15,2 km/h (3 Bft) 96,89 %
02.04.2021 13:00 6,6 C 7,1 C 4,9 C 83 % 1026,2 hPa 0,0 l/m 0,00 h 0,00 h 133 W/m 16,3 km/h (3 Bft) 96,59 %
02.04.2021 14:00 7,7 C 9,4 C 6,5 C 77 % 1025,9 hPa 0,0 l/m 0,23 h 0,00 h 287 W/m 19,2 km/h (3 Bft) 98,15 %
02.04.2021 15:00 8,5 C 9,5 C 6,6 C 71 % 1025,9 hPa 0,0 l/m 0,17 h 0,00 h 266 W/m 25,7 km/h (4 Bft) 98,93 %
02.04.2021 16:00 8,5 C 10,0 C 6,7 C 70 % 1025,5 hPa 0,0 l/m 0,40 h 0,00 h 261 W/m 19,4 km/h (3 Bft) 95,30 %
02.04.2021 17:00 8,6 C 9,3 C 6,2 C 69 % 1025,3 hPa 0,0 l/m 0,40 h 0,00 h 178 W/m 21,7 km/h (4 Bft) 97,20 %
02.04.2021 18:00 7,6 C 7,2 C 4,7 C 75 % 1025,5 hPa 0,0 l/m 0,00 h 0,00 h 33 W/m 22,5 km/h (4 Bft) 99,63 %
02.04.2021 19:00 7,2 C 6,7 C 4,5 C 75 % 1025,5 hPa 0,0 l/m 0,00 h 0,00 h 16 W/m 20,4 km/h (4 Bft) 97,58 %
02.04.2021 20:00 7,0 C 6,5 C 4,0 C 75 % 1025,6 hPa 0,0 l/m 0,00 h 0,00 h 0 W/m 18,8 km/h (3 Bft) 95,77 %
02.04.2021 21:00 6,9 C 6,1 C 3,9 C 73 % 1025,8 hPa 0,0 l/m 0,00 h 0,00 h 0 W/m 16,2 km/h (3 Bft) 98,42 %
02.04.2021 22:00 6,9 C 6,1 C 3,9 C 74 % 1025,7 hPa 0,0 l/m 0,00 h 0,00 h 0 W/m 11,6 km/h (2 Bft) 98,22 %
02.04.2021 23:00 6,5 C 5,8 C 3,5 C 82 % 1025,8 hPa 0,0 l/m 0,00 h 0,00 h 0 W/m 14,4 km/h (3 Bft) 97,53 %
03.04.2021 00:00 6,2 C 5,6 C 3,4 C 85 % 1025,9 hPa 0,0 l/m 0,00 h 0,00 h 0 W/m 11,0 km/h (2 Bft) 94,00 %
03.04.2021 01:00 6,0 C 5,1 C 3,1 C 86 % 1025,9 hPa 0,0 l/m 0,00 h 0,00 h 0 W/m 16,1 km/h (3 Bft) 97,40 %
03.04.2021 02:00 5,5 C 5,0 C 2,9 C 86 % 1025,6 hPa 0,0 l/m 0,00 h 0,00 h 0 W/m 15,9 km/h (3 Bft) 96,72 %
03.04.2021 03:00 5,4 C 5,0 C 2,8 C 80 % 1025,4 hPa 0,0 l/m 0,00 h 0,00 h 0 W/m 18,8 km/h (3 Bft) 96,90 %
03.04.2021 04:00 5,3 C 4,9 C 2,8 C 79 % 1025,6 hPa 0,0 l/m 0,00 h 0,00 h 0 W/m 17,5 km/h (3 Bft) 99,79 %
03.04.2021 05:00 5,1 C 4,4 C 2,3 C 81 % 1025,7 hPa 0,0 l/m 0,00 h 0,00 h 0 W/m 11,4 km/h (2 Bft) 95,09 %
03.04.2021 06:00 5,0 C 4,4 C 2,3 C 83 % 1026,0 hPa 0,0 l/m 0,00 h 0,00 h 0 W/m 9,0 km/h (2 Bft) 97,57 %
03.04.2021 07:00 5,0 C 4,4 C 2,4 C 84 % 1026,5 hPa 0,0 l/m 0,00 h 0,00 h 17 W/m 8,6 km/h (2 Bft) 99,36 %
03.04.2021 08:00 5,2 C 5,1 C 2,8 C 85 % 1027,2 hPa 0,0 l/m 0,00 h 0,00 h 57 W/m 13,5 km/h (3 Bft) 96,44 %
03.04.2021 09:00 6,0 C 8,2 C 4,6 C 83 % 1027,7 hPa 0,0 l/m 0,53 h 0,00 h 254 W/m 13,1 km/h (3 Bft) 98,95 %
03.04.2021 10:00 8,5 C 13,1 C 9,9 C 72 % 1028,2 hPa 0,0 l/m 0,67 h 0,00 h 360 W/m 15,9 km/h (3 Bft) 97,51 %
03.04.2021 11:00 8,9 C 12,2 C 10,1 C 73 % 1028,5 hPa 0,0 l/m 0,70 h 0,00 h 431 W/m 16,3 km/h (3 Bft) 95,26 %
03.04.2021 12:00 9,9 C 14,0 C 12,6 C 73 % 1028,4 hPa 0,0 l/m 0,67 h 0,00 h 522 W/m 16,4 km/h (3 Bft) 97,90 %
03.04.2021 13:00 11,2 C 17,6 C 11,6 C 69 % 1028,4 hPa 0,0 l/m 0,87 h 0,00 h 727 W/m 17,3 km/h (3 Bft) 98,58 %
03.04.2021 14:00 11,9 C 16,7 C 9,7 C 65 % 1028,3 hPa 0,0 l/m 0,73 h 0,00 h 580 W/m 14,5 km/h (3 Bft) 77,55 %
03.04.2021 15:00 12,5 C 18,4 C 9,9 C 61 % 1027,7 hPa 0,0 l/m 0,87 h 0,00 h 570 W/m 14,9 km/h (3 Bft) 98,08 %
03.04.2021 16:00 12,5 C 17,6 C 10,0 C 56 % 1027,3 hPa 0,0 l/m 0,80 h 0,00 h 425 W/m 16,0 km/h (3 Bft) 99,22 %
03.04.2021 17:00 12,8 C 18,0 C 10,3 C 55 % 1026,8 hPa 0,0 l/m 0,93 h 0,00 h 371 W/m 13,4 km/h (3 Bft) 95,44 %
03.04.2021 18:00 12,5 C 16,4 C 10,0 C 54 % 1026,5 hPa 0,0 l/m 0,87 h 0,00 h 195 W/m 14,4 km/h (3 Bft) 98,62 %
03.04.2021 19:00 11,3 C 10,5 C 8,1 C 59 % 1026,3 hPa 0,0 l/m 0,00 h 0,00 h 29 W/m 10,0 km/h (2 Bft) 97,72 %
03.04.2021 20:00 9,8 C 8,5 C 6,3 C 65 % 1026,4 hPa 0,0 l/m 0,00 h 0,00 h 6 W/m 7,7 km/h (2 Bft) 95,63 %
03.04.2021 21:00 8,3 C 7,3 C 4,9 C 72 % 1026,9 hPa 0,0 l/m 0,00 h 0,00 h 0 W/m 18,6 km/h (3 Bft) 98,01 %
03.04.2021 22:00 7,0 C 6,1 C 3,7 C 76 % 1027,4 hPa 0,0 l/m 0,00 h 0,00 h 0 W/m 16,0 km/h (3 Bft) 96,42 %
03.04.2021 23:00 6,0 C 5,1 C 2,8 C 77 % 1027,7 hPa 0,0 l/m 0,00 h 0,00 h 0 W/m 14,2 km/h (3 Bft) 99,50 %
04.04.2021 00:00 5,1 C 4,2 C 2,0 C 79 % 1027,8 hPa 0,0 l/m 0,00 h 0,00 h 0 W/m 10,0 km/h (2 Bft) 92,06 %
04.04.2021 01:00 4,3 C 3,2 C 1,1 C 81 % 1027,5 hPa 0,0 l/m 0,00 h 0,00 h 0 W/m 2,5 km/h (1 Bft) 95,89 %
04.04.2021 02:00 3,4 C 2,4 C 0,6 C 84 % 1027,4 hPa 0,0 l/m 0,00 h 0,00 h 0 W/m 3,2 km/h (1 Bft) 96,29 %
04.04.2021 03:00 2,9 C 2,2 C 0,2 C 86 % 1027,3 hPa 0,0 l/m 0,00 h 0,00 h 0 W/m 1,3 km/h (1 Bft) 99,00 %
04.04.2021 04:00 3,5 C 3,2 C 1,2 C 87 % 1027,1 hPa 0,0 l/m 0,00 h 0,00 h 0 W/m 2,0 km/h (1 Bft) 93,99 %
04.04.2021 05:00 3,9 C 3,3 C 1,7 C 86 % 1027,0 hPa 0,0 l/m 0,00 h 0,00 h 0 W/m 2,5 km/h (1 Bft) 99,34 %
04.04.2021 06:00 4,1 C 3,7 C 1,7 C 86 % 1026,6 hPa 0,0 l/m 0,00 h 0,00 h 0 W/m 1,7 km/h (1 Bft) 98,45 %
04.04.2021 07:00 4,4 C 4,0 C 2,0 C 85 % 1026,5 hPa 0,0 l/m 0,00 h 0,00 h 10 W/m 3,3 km/h (1 Bft) 94,92 %
04.04.2021 08:00 4,7 C 4,6 C 2,6 C 83 % 1026,5 hPa 0,0 l/m 0,00 h 0,00 h 30 W/m 4,1 km/h (1 Bft) 95,33 %
04.04.2021 09:00 5,2 C 5,2 C 3,0 C 81 % 1026,5 hPa 0,0 l/m 0,00 h 0,00 h 59 W/m 5,2 km/h (1 Bft) 97,87 %
04.04.2021 10:00 5,6 C 5,7 C 3,4 C 80 % 1026,5 hPa 0,0 l/m 0,00 h 0,00 h 86 W/m 7,4 km/h (2 Bft) 96,63 %
04.04.2021 11:00 6,1 C 6,4 C 4,1 C 79 % 1026,4 hPa 0,0 l/m 0,00 h 0,00 h 135 W/m 10,5 km/h (2 Bft) 98,05 %
04.04.2021 12:00 6,6 C 6,9 C 4,6 C 77 % 1026,0 hPa 0,0 l/m 0,00 h 0,00 h 154 W/m 9,3 km/h (2 Bft) 94,88 %
04.04.2021 13:00 7,2 C 7,9 C 5,3 C 75 % 1025,3 hPa 0,0 l/m 0,00 h 0,00 h 218 W/m 8,6 km/h (2 Bft) 97,58 %
04.04.2021 14:00 7,9 C 8,8 C 6,4 C 73 % 1024,6 hPa 0,0 l/m 0,00 h 0,00 h 265 W/m 8,7 km/h (2 Bft) 98,44 %
04.04.2021 15:00 8,5 C 9,1 C 6,7 C 71 % 1023,8 hPa 0,0 l/m 0,00 h 0,00 h 246 W/m 9,3 km/h (2 Bft) 95,40 %
04.04.2021 16:00 8,9 C 10,4 C 7,0 C 70 % 1022,8 hPa 0,0 l/m 0,57 h 0,00 h 295 W/m 10,4 km/h (2 Bft) 97,80 %
04.04.2021 17:00 9,9 C 12,5 C 7,6 C 67 % 1021,7 hPa 0,0 l/m 0,93 h 0,00 h 303 W/m 8,5 km/h (2 Bft) 99,43 %
04.04.2021 18:00 9,9 C 12,3 C 7,2 C 67 % 1021,0 hPa 0,0 l/m 0,87 h 0,00 h 175 W/m 7,6 km/h (2 Bft) 95,68 %
04.04.2021 19:00 9,1 C 8,4 C 5,9 C 69 % 1020,1 hPa 0,0 l/m 0,00 h 0,00 h 41 W/m 4,9 km/h (1 Bft) 97,88 %
04.04.2021 20:00 7,8 C 6,3 C 4,1 C 74 % 1019,5 hPa 0,0 l/m 0,00 h 0,00 h 8 W/m 1,0 km/h (0 Bft) 99,65 %
04.04.2021 21:00 6,5 C 5,1 C 3,1 C 78 % 1018,7 hPa 0,0 l/m 0,00 h 0,00 h 0 W/m 1,3 km/h (1 Bft) 96,09 %
04.04.2021 22:00 5,7 C 4,5 C 2,8 C 81 % 1017,8 hPa 0,0 l/m 0,00 h 0,00 h 0 W/m 2,5 km/h (1 Bft) 96,75 %
04.04.2021 23:00 5,2 C 4,3 C 2,5 C 83 % 1016,8 hPa 0,0 l/m 0,00 h 0,00 h 0 W/m 4,1 km/h (1 Bft) 95,48 %
Min-Datum _ 04.04.21 04.04.21 04.04.21 30.03.21 04.04.21 - - - - 29.03.21 03.04.21
_ Min-Zeit 03:24 03:10 02:58 18:24 23:52 - - - - 00:00 00:02
Minimum _ 2,8 C 1,7 C 0,0 C 29 % 1016,4 hPa - - - - 0,0 km/h (0 Bft) 10,00 %
Max-Datum _ 31.03.21 31.03.21 31.03.21 02.04.21 30.03.21 29.03.21 29.03.21 29.03.21 03.04.21 01.04.21 29.03.21
_ Max-Zeit 16:38 16:38 12:48 05:10 10:50 00:00 09:38 00:00 12:38 17:14 00:02
Maximum _ 27,0 C 35,0 C 33,9 C 92 % 1032,4 hPa 0,0 l/m 0,07 h 0,00 h 923 W/m 45,1 km/h
N-NO (6 Bft)
100,00 %
Durchschnitt _ 11,6 C 12,4 C 9,1 C 68 % 1025,6 hPa #0,0 l/m #49:56 h #0 min. 299 W/m 9,9 km/h (2 Bft) 97,17 %
© 2021 W. Hausmann